Karnak, North Dakota
Current Conditions -  °F | °C
As of 7:15 PM on Monday 20 Oct 2014 (Local Time) from KBAC Reporting Station
Clear Clear  
Wind Chill: 55°   Ceiling: Unl
Heat Index: 55°   Visibility: 10mi
Dew Point: 41°   Wind: 7mph
Humidity: 58%   Direction: 140°SE
Pressure: 30.02"   Gusts: NA
Location:  47.2843°N, 98.1073°W
Report Text: KBAC 210015Z AUTO 14006KT 10SM CLR 13/05 A3002 RMK AO2
Loading
Personal Weather Stations






























Interactive Weather Map
Tropical Storm Tracking
New forecast layout! Learn more

10-Day Weather Forecast

Advertisements
Track Severe Weather on mobile